sensor_id;sensor_type;location;lat;lon;timestamp;temperature;humidity
19536;HTU21D;9913;51.168;4.124;2024-02-28T00:02:12;3.84;95.39
19536;HTU21D;9913;51.168;4.124;2024-02-28T00:04:40;3.85;95.67
19536;HTU21D;9913;51.168;4.124;2024-02-28T00:07:09;3.86;95.66
19536;HTU21D;9913;51.168;4.124;2024-02-28T00:09:37;3.79;95.52
19536;HTU21D;9913;51.168;4.124;2024-02-28T00:12:06;3.77;95.51
19536;HTU21D;9913;51.168;4.124;2024-02-28T00:14:36;3.73;95.84
19536;HTU21D;9913;51.168;4.124;2024-02-28T00:17:04;3.71;95.55
19536;HTU21D;9913;51.168;4.124;2024-02-28T00:19:32;3.61;95.77
19536;HTU21D;9913;51.168;4.124;2024-02-28T00:22:01;3.61;95.76
19536;HTU21D;9913;51.168;4.124;2024-02-28T00:24:29;3.56;95.54
19536;HTU21D;9913;51.168;4.124;2024-02-28T00:26:57;3.48;95.63
19536;HTU21D;9913;51.168;4.124;2024-02-28T00:29:26;3.58;95.93
19536;HTU21D;9913;51.168;4.124;2024-02-28T00:31:55;3.62;95.65
19536;HTU21D;9913;51.168;4.124;2024-02-28T00:34:24;3.54;95.81
19536;HTU21D;9913;51.168;4.124;2024-02-28T00:36:52;3.35;95.70
19536;HTU21D;9913;51.168;4.124;2024-02-28T00:39:22;3.45;95.78
19536;HTU21D;9913;51.168;4.124;2024-02-28T00:41:51;3.45;95.62
19536;HTU21D;9913;51.168;4.124;2024-02-28T00:44:20;3.42;95.54
19536;HTU21D;9913;51.168;4.124;2024-02-28T00:46:48;3.32;96.90
19536;HTU21D;9913;51.168;4.124;2024-02-28T00:49:17;3.26;95.58
19536;HTU21D;9913;51.168;4.124;2024-02-28T00:51:46;3.34;95.81
19536;HTU21D;9913;51.168;4.124;2024-02-28T00:54:14;3.33;95.70
19536;HTU21D;9913;51.168;4.124;2024-02-28T00:56:43;3.42;95.68
19536;HTU21D;9913;51.168;4.124;2024-02-28T00:59:11;3.40;95.78
19536;HTU21D;9913;51.168;4.124;2024-02-28T01:01:40;3.44;95.86
19536;HTU21D;9913;51.168;4.124;2024-02-28T01:04:09;3.44;95.97
19536;HTU21D;9913;51.168;4.124;2024-02-28T01:06:39;3.45;95.62
19536;HTU21D;9913;51.168;4.124;2024-02-28T01:09:07;3.36;95.82
19536;HTU21D;9913;51.168;4.124;2024-02-28T01:11:36;3.34;95.75
19536;HTU21D;9913;51.168;4.124;2024-02-28T01:14:04;3.19;95.65
19536;HTU21D;9913;51.168;4.124;2024-02-28T01:16:32;3.21;95.80
19536;HTU21D;9913;51.168;4.124;2024-02-28T01:19:01;3.25;95.88
19536;HTU21D;9913;51.168;4.124;2024-02-28T01:21:30;3.18;95.76
19536;HTU21D;9913;51.168;4.124;2024-02-28T01:23:59;3.01;95.81
19536;HTU21D;9913;51.168;4.124;2024-02-28T01:26:28;3.05;95.78
19536;HTU21D;9913;51.168;4.124;2024-02-28T01:28:56;3.10;96.15
19536;HTU21D;9913;51.168;4.124;2024-02-28T01:31:24;2.98;95.96
19536;HTU21D;9913;51.168;4.124;2024-02-28T01:33:53;3.00;96.12
19536;HTU21D;9913;51.168;4.124;2024-02-28T01:36:21;2.90;96.19
19536;HTU21D;9913;51.168;4.124;2024-02-28T01:38:49;2.91;95.99
19536;HTU21D;9913;51.168;4.124;2024-02-28T01:41:19;2.98;96.31
19536;HTU21D;9913;51.168;4.124;2024-02-28T01:43:47;3.08;95.83
19536;HTU21D;9913;51.168;4.124;2024-02-28T01:46:21;3.16;95.98
19536;HTU21D;9913;51.168;4.124;2024-02-28T01:48:50;3.25;95.81
19536;HTU21D;9913;51.168;4.124;2024-02-28T01:51:19;3.20;95.88
19536;HTU21D;9913;51.168;4.124;2024-02-28T01:53:50;3.17;95.87
19536;HTU21D;9913;51.168;4.124;2024-02-28T01:56:22;3.20;95.88
19536;HTU21D;9913;51.168;4.124;2024-02-28T01:58:52;3.11;95.77
19536;HTU21D;9913;51.168;4.124;2024-02-28T02:01:22;2.99;95.96
19536;HTU21D;9913;51.168;4.124;2024-02-28T02:03:52;2.96;96.10
19536;HTU21D;9913;51.168;4.124;2024-02-28T02:06:21;3.10;96.10
19536;HTU21D;9913;51.168;4.124;2024-02-28T02:08:50;2.93;95.91
19536;HTU21D;9913;51.168;4.124;2024-02-28T02:11:20;2.99;96.19
19536;HTU21D;9913;51.168;4.124;2024-02-28T02:13:49;2.98;95.85
19536;HTU21D;9913;51.168;4.124;2024-02-28T02:16:19;2.82;96.03
19536;HTU21D;9913;51.168;4.124;2024-02-28T02:18:49;2.82;96.12
19536;HTU21D;9913;51.168;4.124;2024-02-28T02:21:19;2.79;96.00
19536;HTU21D;9913;51.168;4.124;2024-02-28T02:23:49;2.79;96.13
19536;HTU21D;9913;51.168;4.124;2024-02-28T02:26:17;2.80;96.10
19536;HTU21D;9913;51.168;4.124;2024-02-28T02:28:46;2.78;96.04
19536;HTU21D;9913;51.168;4.124;2024-02-28T02:31:14;2.79;96.09
19536;HTU21D;9913;51.168;4.124;2024-02-28T02:33:42;2.68;96.07
19536;HTU21D;9913;51.168;4.124;2024-02-28T02:36:11;2.57;96.29
19536;HTU21D;9913;51.168;4.124;2024-02-28T02:38:39;2.65;96.30
19536;HTU21D;9913;51.168;4.124;2024-02-28T02:41:09;2.69;96.25
19536;HTU21D;9913;51.168;4.124;2024-02-28T02:43:37;2.69;96.26
19536;HTU21D;9913;51.168;4.124;2024-02-28T02:46:05;2.67;96.07
19536;HTU21D;9913;51.168;4.124;2024-02-28T02:48:34;2.62;96.10
19536;HTU21D;9913;51.168;4.124;2024-02-28T02:51:03;2.73;96.25
19536;HTU21D;9913;51.168;4.124;2024-02-28T02:53:31;2.65;96.12
19536;HTU21D;9913;51.168;4.124;2024-02-28T02:56:00;2.66;96.23
19536;HTU21D;9913;51.168;4.124;2024-02-28T02:58:32;2.71;96.26
19536;HTU21D;9913;51.168;4.124;2024-02-28T03:01:01;2.69;96.26
19536;HTU21D;9913;51.168;4.124;2024-02-28T03:03:29;2.68;96.21
19536;HTU21D;9913;51.168;4.124;2024-02-28T03:05:58;2.59;96.24
19536;HTU21D;9913;51.168;4.124;2024-02-28T03:08:26;2.71;96.47
19536;HTU21D;9913;51.168;4.124;2024-02-28T03:10:54;2.64;96.22
19536;HTU21D;9913;51.168;4.124;2024-02-28T03:13:22;2.61;96.13
19536;HTU21D;9913;51.168;4.124;2024-02-28T03:15:52;2.62;96.36
19536;HTU21D;9913;51.168;4.124;2024-02-28T03:18:20;2.59;96.50
19536;HTU21D;9913;51.168;4.124;2024-02-28T03:20:49;2.65;96.36
19536;HTU21D;9913;51.168;4.124;2024-02-28T03:23:17;2.59;96.34
19536;HTU21D;9913;51.168;4.124;2024-02-28T03:25:45;2.64;96.42
19536;HTU21D;9913;51.168;4.124;2024-02-28T03:28:14;2.64;96.43
19536;HTU21D;9913;51.168;4.124;2024-02-28T03:30:42;2.71;96.17
19536;HTU21D;9913;51.168;4.124;2024-02-28T03:33:11;2.62;96.33
19536;HTU21D;9913;51.168;4.124;2024-02-28T03:35:40;2.66;96.41
19536;HTU21D;9913;51.168;4.124;2024-02-28T03:38:08;2.70;96.47
19536;HTU21D;9913;51.168;4.124;2024-02-28T03:40:36;2.78;96.34
19536;HTU21D;9913;51.168;4.124;2024-02-28T03:43:05;2.78;96.24
19536;HTU21D;9913;51.168;4.124;2024-02-28T03:45:37;2.85;96.26
19536;HTU21D;9913;51.168;4.124;2024-02-28T03:48:06;2.79;96.15
19536;HTU21D;9913;51.168;4.124;2024-02-28T03:50:36;2.89;96.16
19536;HTU21D;9913;51.168;4.124;2024-02-28T03:53:04;2.99;96.10
19536;HTU21D;9913;51.168;4.124;2024-02-28T03:55:33;2.91;95.90
19536;HTU21D;9913;51.168;4.124;2024-02-28T03:58:02;2.96;95.99
19536;HTU21D;9913;51.168;4.124;2024-02-28T04:00:30;2.99;95.91
19536;HTU21D;9913;51.168;4.124;2024-02-28T04:02:58;3.01;95.97
19536;HTU21D;9913;51.168;4.124;2024-02-28T04:05:27;3.06;95.75
19536;HTU21D;9913;51.168;4.124;2024-02-28T04:07:57;2.99;95.80
19536;HTU21D;9913;51.168;4.124;2024-02-28T04:10:25;3.11;95.80
19536;HTU21D;9913;51.168;4.124;2024-02-28T04:12:53;3.08;95.80
19536;HTU21D;9913;51.168;4.124;2024-02-28T04:15:21;3.14;95.78
19536;HTU21D;9913;51.168;4.124;2024-02-28T04:17:53;3.21;95.80
19536;HTU21D;9913;51.168;4.124;2024-02-28T04:20:21;3.16;95.75
19536;HTU21D;9913;51.168;4.124;2024-02-28T04:22:50;3.14;95.82
19536;HTU21D;9913;51.168;4.124;2024-02-28T04:25:19;3.16;95.82
19536;HTU21D;9913;51.168;4.124;2024-02-28T04:27:48;3.18;95.81
19536;HTU21D;9913;51.168;4.124;2024-02-28T04:30:16;3.36;95.95
19536;HTU21D;9913;51.168;4.124;2024-02-28T04:32:45;3.48;95.75
19536;HTU21D;9913;51.168;4.124;2024-02-28T04:35:13;3.56;95.63
19536;HTU21D;9913;51.168;4.124;2024-02-28T04:37:46;3.60;95.55
19536;HTU21D;9913;51.168;4.124;2024-02-28T04:40:14;3.70;95.39
19536;HTU21D;9913;51.168;4.124;2024-02-28T04:42:44;3.63;95.49
19536;HTU21D;9913;51.168;4.124;2024-02-28T04:45:13;3.72;95.59
19536;HTU21D;9913;51.168;4.124;2024-02-28T04:47:41;3.72;95.36
19536;HTU21D;9913;51.168;4.124;2024-02-28T04:50:11;3.77;95.59
19536;HTU21D;9913;51.168;4.124;2024-02-28T04:52:40;3.88;95.56
19536;HTU21D;9913;51.168;4.124;2024-02-28T04:55:08;3.83;95.52
19536;HTU21D;9913;51.168;4.124;2024-02-28T04:57:36;3.84;95.55
19536;HTU21D;9913;51.168;4.124;2024-02-28T05:00:07;3.83;95.79
19536;HTU21D;9913;51.168;4.124;2024-02-28T05:02:36;3.88;95.67
19536;HTU21D;9913;51.168;4.124;2024-02-28T05:05:05;3.90;95.37
19536;HTU21D;9913;51.168;4.124;2024-02-28T05:07:33;3.92;95.40
19536;HTU21D;9913;51.168;4.124;2024-02-28T05:10:02;3.93;95.43
19536;HTU21D;9913;51.168;4.124;2024-02-28T05:12:30;3.95;95.15
19536;HTU21D;9913;51.168;4.124;2024-02-28T05:14:59;3.95;95.20
19536;HTU21D;9913;51.168;4.124;2024-02-28T05:17:28;4.04;95.03
19536;HTU21D;9913;51.168;4.124;2024-02-28T05:19:57;3.98;95.23
19536;HTU21D;9913;51.168;4.124;2024-02-28T05:22:25;4.09;95.18
19536;HTU21D;9913;51.168;4.124;2024-02-28T05:24:53;4.14;95.19
19536;HTU21D;9913;51.168;4.124;2024-02-28T05:27:22;4.12;95.10
19536;HTU21D;9913;51.168;4.124;2024-02-28T05:29:50;4.16;95.12
19536;HTU21D;9913;51.168;4.124;2024-02-28T05:32:18;4.24;94.95
19536;HTU21D;9913;51.168;4.124;2024-02-28T05:34:49;4.21;94.88
19536;HTU21D;9913;51.168;4.124;2024-02-28T05:37:17;4.16;95.01
19536;HTU21D;9913;51.168;4.124;2024-02-28T05:39:46;4.16;95.16
19536;HTU21D;9913;51.168;4.124;2024-02-28T05:42:14;4.19;95.18
19536;HTU21D;9913;51.168;4.124;2024-02-28T05:44:48;4.15;95.19
19536;HTU21D;9913;51.168;4.124;2024-02-28T05:47:17;4.27;95.12
19536;HTU21D;9913;51.168;4.124;2024-02-28T05:49:50;4.21;95.01
19536;HTU21D;9913;51.168;4.124;2024-02-28T05:52:19;4.19;95.05
19536;HTU21D;9913;51.168;4.124;2024-02-28T05:54:47;4.20;95.25
19536;HTU21D;9913;51.168;4.124;2024-02-28T05:57:16;4.17;95.31
19536;HTU21D;9913;51.168;4.124;2024-02-28T05:59:44;4.32;95.30
19536;HTU21D;9913;51.168;4.124;2024-02-28T06:02:13;4.28;95.11
19536;HTU21D;9913;51.168;4.124;2024-02-28T06:04:41;4.34;95.10
19536;HTU21D;9913;51.168;4.124;2024-02-28T06:07:10;4.37;95.17
19536;HTU21D;9913;51.168;4.124;2024-02-28T06:09:40;4.35;95.15
19536;HTU21D;9913;51.168;4.124;2024-02-28T06:12:08;4.34;95.01
19536;HTU21D;9913;51.168;4.124;2024-02-28T06:14:36;4.38;95.19
19536;HTU21D;9913;51.168;4.124;2024-02-28T06:17:05;4.32;95.01
19536;HTU21D;9913;51.168;4.124;2024-02-28T06:19:33;4.24;95.09
19536;HTU21D;9913;51.168;4.124;2024-02-28T06:22:01;4.16;95.23
19536;HTU21D;9913;51.168;4.124;2024-02-28T06:24:33;4.04;95.21
19536;HTU21D;9913;51.168;4.124;2024-02-28T06:27:02;3.88;95.22
19536;HTU21D;9913;51.168;4.124;2024-02-28T06:29:31;3.82;95.36
19536;HTU21D;9913;51.168;4.124;2024-02-28T06:32:03;3.86;95.57
19536;HTU21D;9913;51.168;4.124;2024-02-28T06:34:32;3.63;95.44
19536;HTU21D;9913;51.168;4.124;2024-02-28T06:37:00;3.74;95.49
19536;HTU21D;9913;51.168;4.124;2024-02-28T06:39:28;3.84;95.39
19536;HTU21D;9913;51.168;4.124;2024-02-28T06:41:58;3.87;95.44
19536;HTU21D;9913;51.168;4.124;2024-02-28T06:44:26;3.91;95.37
19536;HTU21D;9913;51.168;4.124;2024-02-28T06:46:54;3.99;95.19
19536;HTU21D;9913;51.168;4.124;2024-02-28T06:49:23;3.98;95.12
19536;HTU21D;9913;51.168;4.124;2024-02-28T06:51:51;4.00;95.20
19536;HTU21D;9913;51.168;4.124;2024-02-28T06:54:20;3.99;95.30
19536;HTU21D;9913;51.168;4.124;2024-02-28T06:56:49;3.94;95.28
19536;HTU21D;9913;51.168;4.124;2024-02-28T06:59:19;3.98;95.38
19536;HTU21D;9913;51.168;4.124;2024-02-28T07:01:47;3.98;95.13
19536;HTU21D;9913;51.168;4.124;2024-02-28T07:04:15;4.06;95.22
19536;HTU21D;9913;51.168;4.124;2024-02-28T07:06:44;4.07;95.17
19536;HTU21D;9913;51.168;4.124;2024-02-28T07:09:12;4.05;95.20
19536;HTU21D;9913;51.168;4.124;2024-02-28T07:11:42;4.10;95.34
19536;HTU21D;9913;51.168;4.124;2024-02-28T07:14:10;4.14;95.27
19536;HTU21D;9913;51.168;4.124;2024-02-28T07:16:42;4.13;95.12
19536;HTU21D;9913;51.168;4.124;2024-02-28T07:19:11;4.05;95.16
19536;HTU21D;9913;51.168;4.124;2024-02-28T07:21:40;4.18;95.30
19536;HTU21D;9913;51.168;4.124;2024-02-28T07:24:09;4.26;95.13
19536;HTU21D;9913;51.168;4.124;2024-02-28T07:26:37;4.23;95.03
19536;HTU21D;9913;51.168;4.124;2024-02-28T07:29:07;4.07;95.12
19536;HTU21D;9913;51.168;4.124;2024-02-28T07:31:36;3.95;95.34
19536;HTU21D;9913;51.168;4.124;2024-02-28T07:34:06;4.12;95.35
19536;HTU21D;9913;51.168;4.124;2024-02-28T07:36:35;4.29;95.19
19536;HTU21D;9913;51.168;4.124;2024-02-28T07:39:04;4.30;95.11
19536;HTU21D;9913;51.168;4.124;2024-02-28T07:41:32;4.29;95.15
19536;HTU21D;9913;51.168;4.124;2024-02-28T07:44:00;4.41;95.14
19536;HTU21D;9913;51.168;4.124;2024-02-28T07:46:28;4.48;95.01
19536;HTU21D;9913;51.168;4.124;2024-02-28T07:48:57;4.43;95.00
19536;HTU21D;9913;51.168;4.124;2024-02-28T07:51:27;4.51;94.78
19536;HTU21D;9913;51.168;4.124;2024-02-28T07:53:55;4.59;94.85
19536;HTU21D;9913;51.168;4.124;2024-02-28T07:56:23;4.56;94.94
19536;HTU21D;9913;51.168;4.124;2024-02-28T07:58:51;4.51;94.93
19536;HTU21D;9913;51.168;4.124;2024-02-28T08:01:20;4.63;95.19
19536;HTU21D;9913;51.168;4.124;2024-02-28T08:03:49;4.72;94.75
19536;HTU21D;9913;51.168;4.124;2024-02-28T08:06:17;4.63;94.71
19536;HTU21D;9913;51.168;4.124;2024-02-28T08:08:47;4.54;94.92
19536;HTU21D;9913;51.168;4.124;2024-02-28T08:11:15;4.72;94.98
19536;HTU21D;9913;51.168;4.124;2024-02-28T08:13:46;4.81;94.76
19536;HTU21D;9913;51.168;4.124;2024-02-28T08:16:14;4.79;94.75
19536;HTU21D;9913;51.168;4.124;2024-02-28T08:18:42;4.75;94.90
19536;HTU21D;9913;51.168;4.124;2024-02-28T08:21:11;4.82;94.98
19536;HTU21D;9913;51.168;4.124;2024-02-28T08:23:39;4.98;94.75
19536;HTU21D;9913;51.168;4.124;2024-02-28T08:26:09;4.96;94.66
19536;HTU21D;9913;51.168;4.124;2024-02-28T08:28:38;5.05;94.79
19536;HTU21D;9913;51.168;4.124;2024-02-28T08:31:06;5.13;94.65
19536;HTU21D;9913;51.168;4.124;2024-02-28T08:33:35;5.20;94.46
19536;HTU21D;9913;51.168;4.124;2024-02-28T08:36:04;5.28;94.39
19536;HTU21D;9913;51.168;4.124;2024-02-28T08:38:32;5.35;94.45
19536;HTU21D;9913;51.168;4.124;2024-02-28T08:41:01;5.41;94.56
19536;HTU21D;9913;51.168;4.124;2024-02-28T08:43:31;5.62;94.47
19536;HTU21D;9913;51.168;4.124;2024-02-28T08:45:59;5.79;94.16
19536;HTU21D;9913;51.168;4.124;2024-02-28T08:48:28;5.77;94.38
19536;HTU21D;9913;51.168;4.124;2024-02-28T08:50:56;5.82;94.20
19536;HTU21D;9913;51.168;4.124;2024-02-28T08:53:24;5.97;94.04
19536;HTU21D;9913;51.168;4.124;2024-02-28T08:55:53;6.11;94.50
19536;HTU21D;9913;51.168;4.124;2024-02-28T08:58:21;6.16;93.89
19536;HTU21D;9913;51.168;4.124;2024-02-28T09:00:51;6.25;94.52
19536;HTU21D;9913;51.168;4.124;2024-02-28T09:03:19;6.40;94.30
19536;HTU21D;9913;51.168;4.124;2024-02-28T09:05:49;6.60;94.33
19536;HTU21D;9913;51.168;4.124;2024-02-28T09:08:18;6.64;94.39
19536;HTU21D;9913;51.168;4.124;2024-02-28T09:10:46;6.67;94.11
19536;HTU21D;9913;51.168;4.124;2024-02-28T09:13:14;6.71;94.69
19536;HTU21D;9913;51.168;4.124;2024-02-28T09:15:44;6.80;94.52
19536;HTU21D;9913;51.168;4.124;2024-02-28T09:18:14;6.76;94.54
19536;HTU21D;9913;51.168;4.124;2024-02-28T09:20:43;6.56;93.95
19536;HTU21D;9913;51.168;4.124;2024-02-28T09:23:11;6.79;94.62
19536;HTU21D;9913;51.168;4.124;2024-02-28T09:25:41;6.82;94.59
19536;HTU21D;9913;51.168;4.124;2024-02-28T09:28:09;6.97;94.62
19536;HTU21D;9913;51.168;4.124;2024-02-28T09:30:40;7.04;94.72
19536;HTU21D;9913;51.168;4.124;2024-02-28T09:33:20;7.02;94.43
19536;HTU21D;9913;51.168;4.124;2024-02-28T09:35:48;7.29;94.52
19536;HTU21D;9913;51.168;4.124;2024-02-28T09:38:16;7.22;94.54
19536;HTU21D;9913;51.168;4.124;2024-02-28T09:40:46;7.30;94.49
19536;HTU21D;9913;51.168;4.124;2024-02-28T09:43:19;7.30;94.66
19536;HTU21D;9913;51.168;4.124;2024-02-28T09:45:48;7.29;94.59
19536;HTU21D;9913;51.168;4.124;2024-02-28T09:48:16;7.57;95.07
19536;HTU21D;9913;51.168;4.124;2024-02-28T09:50:47;7.69;94.27
19536;HTU21D;9913;51.168;4.124;2024-02-28T09:53:15;7.87;94.79
19536;HTU21D;9913;51.168;4.124;2024-02-28T09:55:44;7.90;94.73
19536;HTU21D;9913;51.168;4.124;2024-02-28T09:58:12;7.59;93.72
19536;HTU21D;9913;51.168;4.124;2024-02-28T10:00:41;7.88;94.33
19536;HTU21D;9913;51.168;4.124;2024-02-28T10:03:14;7.78;94.78
19536;HTU21D;9913;51.168;4.124;2024-02-28T10:05:46;7.86;94.85
19536;HTU21D;9913;51.168;4.124;2024-02-28T10:08:15;7.72;94.58
19536;HTU21D;9913;51.168;4.124;2024-02-28T10:10:46;7.62;94.18
19536;HTU21D;9913;51.168;4.124;2024-02-28T10:13:16;7.91;95.04
19536;HTU21D;9913;51.168;4.124;2024-02-28T10:15:44;8.02;94.53
19536;HTU21D;9913;51.168;4.124;2024-02-28T10:18:13;8.15;94.66
19536;HTU21D;9913;51.168;4.124;2024-02-28T10:20:42;8.22;94.20
19536;HTU21D;9913;51.168;4.124;2024-02-28T10:23:12;8.43;95.04
19536;HTU21D;9913;51.168;4.124;2024-02-28T10:25:44;8.58;95.22
19536;HTU21D;9913;51.168;4.124;2024-02-28T10:28:23;8.60;94.72
19536;HTU21D;9913;51.168;4.124;2024-02-28T10:30:53;8.49;94.80
19536;HTU21D;9913;51.168;4.124;2024-02-28T10:33:26;8.32;94.62
19536;HTU21D;9913;51.168;4.124;2024-02-28T10:35:56;8.37;94.52
19536;HTU21D;9913;51.168;4.124;2024-02-28T10:38:26;8.24;94.54
19536;HTU21D;9913;51.168;4.124;2024-02-28T10:40:55;8.38;94.26
19536;HTU21D;9913;51.168;4.124;2024-02-28T10:43:26;8.45;94.74
19536;HTU21D;9913;51.168;4.124;2024-02-28T10:45:57;8.90;95.17
19536;HTU21D;9913;51.168;4.124;2024-02-28T10:48:46;8.74;95.02
19536;HTU21D;9913;51.168;4.124;2024-02-28T10:51:19;8.73;94.84
19536;HTU21D;9913;51.168;4.124;2024-02-28T10:53:57;8.77;95.19
19536;HTU21D;9913;51.168;4.124;2024-02-28T10:56:28;8.70;94.90
19536;HTU21D;9913;51.168;4.124;2024-02-28T10:58:59;8.67;94.64
19536;HTU21D;9913;51.168;4.124;2024-02-28T11:01:27;8.65;94.83
19536;HTU21D;9913;51.168;4.124;2024-02-28T11:03:56;8.93;94.93
19536;HTU21D;9913;51.168;4.124;2024-02-28T11:06:24;9.18;94.97
19536;HTU21D;9913;51.168;4.124;2024-02-28T11:08:54;9.07;95.37
19536;HTU21D;9913;51.168;4.124;2024-02-28T11:11:23;9.01;94.96
19536;HTU21D;9913;51.168;4.124;2024-02-28T11:13:52;9.23;95.49
19536;HTU21D;9913;51.168;4.124;2024-02-28T11:16:29;9.18;95.49
19536;HTU21D;9913;51.168;4.124;2024-02-28T11:18:58;9.21;95.95
19536;HTU21D;9913;51.168;4.124;2024-02-28T11:21:28;9.50;95.77
19536;HTU21D;9913;51.168;4.124;2024-02-28T11:24:01;9.67;96.77
19536;HTU21D;9913;51.168;4.124;2024-02-28T11:26:30;9.50;95.81
19536;HTU21D;9913;51.168;4.124;2024-02-28T11:28:59;9.25;95.35
19536;HTU21D;9913;51.168;4.124;2024-02-28T11:31:27;8.93;95.06
19536;HTU21D;9913;51.168;4.124;2024-02-28T11:33:55;9.37;95.55
19536;HTU21D;9913;51.168;4.124;2024-02-28T11:36:24;9.70;96.10
19536;HTU21D;9913;51.168;4.124;2024-02-28T11:38:53;9.80;94.85
19536;HTU21D;9913;51.168;4.124;2024-02-28T11:41:27;9.48;95.14
19536;HTU21D;9913;51.168;4.124;2024-02-28T11:43:56;9.55;96.08
19536;HTU21D;9913;51.168;4.124;2024-02-28T11:46:24;9.41;95.05
19536;HTU21D;9913;51.168;4.124;2024-02-28T11:48:52;9.40;95.97
19536;HTU21D;9913;51.168;4.124;2024-02-28T11:51:22;9.63;95.46
19536;HTU21D;9913;51.168;4.124;2024-02-28T11:53:51;9.90;95.94
19536;HTU21D;9913;51.168;4.124;2024-02-28T11:56:19;9.94;96.22
19536;HTU21D;9913;51.168;4.124;2024-02-28T11:58:53;9.83;95.66
19536;HTU21D;9913;51.168;4.124;2024-02-28T12:01:33;9.42;94.94
19536;HTU21D;9913;51.168;4.124;2024-02-28T12:04:04;9.66;95.75
19536;HTU21D;9913;51.168;4.124;2024-02-28T12:06:34;9.36;95.15
19536;HTU21D;9913;51.168;4.124;2024-02-28T12:09:04;9.51;96.07
19536;HTU21D;9913;51.168;4.124;2024-02-28T12:11:33;9.71;96.10
19536;HTU21D;9913;51.168;4.124;2024-02-28T12:14:04;9.69;95.66
19536;HTU21D;9913;51.168;4.124;2024-02-28T12:16:36;9.48;95.61
19536;HTU21D;9913;51.168;4.124;2024-02-28T12:19:07;9.35;94.93
19536;HTU21D;9913;51.168;4.124;2024-02-28T12:21:37;9.46;94.50
19536;HTU21D;9913;51.168;4.124;2024-02-28T12:24:07;9.39;95.16
19536;HTU21D;9913;51.168;4.124;2024-02-28T12:26:35;9.35;94.57
19536;HTU21D;9913;51.168;4.124;2024-02-28T12:29:05;9.34;94.30
19536;HTU21D;9913;51.168;4.124;2024-02-28T12:31:34;9.21;93.91
19536;HTU21D;9913;51.168;4.124;2024-02-28T12:34:02;9.11;93.91
19536;HTU21D;9913;51.168;4.124;2024-02-28T12:36:32;9.14;93.65
19536;HTU21D;9913;51.168;4.124;2024-02-28T12:39:01;9.08;94.00
19536;HTU21D;9913;51.168;4.124;2024-02-28T12:41:29;9.04;93.40
19536;HTU21D;9913;51.168;4.124;2024-02-28T12:43:57;9.00;93.47
19536;HTU21D;9913;51.168;4.124;2024-02-28T12:46:27;9.18;93.59
19536;HTU21D;9913;51.168;4.124;2024-02-28T12:48:55;9.37;93.38
19536;HTU21D;9913;51.168;4.124;2024-02-28T12:51:36;9.47;93.93
19536;HTU21D;9913;51.168;4.124;2024-02-28T12:54:05;9.74;93.89
19536;HTU21D;9913;51.168;4.124;2024-02-28T12:56:33;9.56;93.69
19536;HTU21D;9913;51.168;4.124;2024-02-28T12:59:02;9.89;94.65
19536;HTU21D;9913;51.168;4.124;2024-02-28T13:01:32;9.92;95.84
19536;HTU21D;9913;51.168;4.124;2024-02-28T13:04:01;10.24;95.38
19536;HTU21D;9913;51.168;4.124;2024-02-28T13:06:29;10.30;95.40
19536;HTU21D;9913;51.168;4.124;2024-02-28T13:08:58;10.49;96.42
19536;HTU21D;9913;51.168;4.124;2024-02-28T13:11:26;10.48;97.75
19536;HTU21D;9913;51.168;4.124;2024-02-28T13:13:55;10.65;97.87
19536;HTU21D;9913;51.168;4.124;2024-02-28T13:16:23;10.58;98.26
19536;HTU21D;9913;51.168;4.124;2024-02-28T13:18:52;10.67;99.22
19536;HTU21D;9913;51.168;4.124;2024-02-28T13:21:21;10.89;99.08
19536;HTU21D;9913;51.168;4.124;2024-02-28T13:23:50;10.97;98.64
19536;HTU21D;9913;51.168;4.124;2024-02-28T13:26:18;11.09;99.14
19536;HTU21D;9913;51.168;4.124;2024-02-28T13:28:47;11.13;100.67
19536;HTU21D;9913;51.168;4.124;2024-02-28T13:31:20;11.23;100.38
19536;HTU21D;9913;51.168;4.124;2024-02-28T13:33:48;11.36;100.82
19536;HTU21D;9913;51.168;4.124;2024-02-28T13:36:18;11.12;101.04
19536;HTU21D;9913;51.168;4.124;2024-02-28T13:38:46;11.28;100.57
19536;HTU21D;9913;51.168;4.124;2024-02-28T13:41:15;11.38;100.93
19536;HTU21D;9913;51.168;4.124;2024-02-28T13:43:44;11.41;100.45
19536;HTU21D;9913;51.168;4.124;2024-02-28T13:46:12;11.36;100.70
19536;HTU21D;9913;51.168;4.124;2024-02-28T13:48:42;11.07;101.57
19536;HTU21D;9913;51.168;4.124;2024-02-28T13:51:11;10.97;100.03
19536;HTU21D;9913;51.168;4.124;2024-02-28T13:53:40;11.17;100.76
19536;HTU21D;9913;51.168;4.124;2024-02-28T13:56:09;11.03;99.96
19536;HTU21D;9913;51.168;4.124;2024-02-28T13:58:37;10.93;100.49
19536;HTU21D;9913;51.168;4.124;2024-02-28T14:01:18;10.77;101.26
19536;HTU21D;9913;51.168;4.124;2024-02-28T14:03:47;10.78;100.10
19536;HTU21D;9913;51.168;4.124;2024-02-28T14:06:15;10.83;100.66
19536;HTU21D;9913;51.168;4.124;2024-02-28T14:08:45;10.69;100.28
19536;HTU21D;9913;51.168;4.124;2024-02-28T14:11:13;10.71;100.32
19536;HTU21D;9913;51.168;4.124;2024-02-28T14:13:44;10.89;100.51
19536;HTU21D;9913;51.168;4.124;2024-02-28T14:16:13;11.07;99.88
19536;HTU21D;9913;51.168;4.124;2024-02-28T14:18:41;11.16;100.51
19536;HTU21D;9913;51.168;4.124;2024-02-28T14:21:10;11.57;100.64
19536;HTU21D;9913;51.168;4.124;2024-02-28T14:23:38;11.81;100.33
19536;HTU21D;9913;51.168;4.124;2024-02-28T14:26:08;11.86;100.25
19536;HTU21D;9913;51.168;4.124;2024-02-28T14:28:36;11.56;101.48
19536;HTU21D;9913;51.168;4.124;2024-02-28T14:31:05;11.26;100.54
19536;HTU21D;9913;51.168;4.124;2024-02-28T14:33:33;11.25;101.25
19536;HTU21D;9913;51.168;4.124;2024-02-28T14:36:04;11.33;100.39
19536;HTU21D;9913;51.168;4.124;2024-02-28T14:38:33;11.18;99.89
19536;HTU21D;9913;51.168;4.124;2024-02-28T14:41:01;11.14;100.11
19536;HTU21D;9913;51.168;4.124;2024-02-28T14:43:31;11.07;99.90
19536;HTU21D;9913;51.168;4.124;2024-02-28T14:46:00;10.90;99.26
19536;HTU21D;9913;51.168;4.124;2024-02-28T14:48:28;11.11;99.67
19536;HTU21D;9913;51.168;4.124;2024-02-28T14:50:57;11.32;101.33
19536;HTU21D;9913;51.168;4.124;2024-02-28T14:53:25;11.36;101.57
19536;HTU21D;9913;51.168;4.124;2024-02-28T14:55:54;11.34;100.96
19536;HTU21D;9913;51.168;4.124;2024-02-28T14:58:22;11.04;101.06
19536;HTU21D;9913;51.168;4.124;2024-02-28T15:00:52;11.09;100.40
19536;HTU21D;9913;51.168;4.124;2024-02-28T15:03:25;11.20;100.54
19536;HTU21D;9913;51.168;4.124;2024-02-28T15:05:54;11.10;101.12
19536;HTU21D;9913;51.168;4.124;2024-02-28T15:08:22;11.17;100.34
19536;HTU21D;9913;51.168;4.124;2024-02-28T15:10:51;11.05;99.56
19536;HTU21D;9913;51.168;4.124;2024-02-28T15:13:20;10.82;99.02
19536;HTU21D;9913;51.168;4.124;2024-02-28T15:15:52;10.86;100.93
19536;HTU21D;9913;51.168;4.124;2024-02-28T15:18:20;10.87;100.14
19536;HTU21D;9913;51.168;4.124;2024-02-28T15:20:49;10.92;100.11
19536;HTU21D;9913;51.168;4.124;2024-02-28T15:23:22;10.92;100.76
19536;HTU21D;9913;51.168;4.124;2024-02-28T15:25:50;10.85;100.05
19536;HTU21D;9913;51.168;4.124;2024-02-28T15:28:21;10.85;100.40
19536;HTU21D;9913;51.168;4.124;2024-02-28T15:30:51;10.60;99.19
19536;HTU21D;9913;51.168;4.124;2024-02-28T15:33:20;10.51;99.91
19536;HTU21D;9913;51.168;4.124;2024-02-28T15:35:48;10.48;99.76
19536;HTU21D;9913;51.168;4.124;2024-02-28T15:38:17;10.66;99.61
19536;HTU21D;9913;51.168;4.124;2024-02-28T15:40:46;10.71;99.51
19536;HTU21D;9913;51.168;4.124;2024-02-28T15:43:14;10.49;99.12
19536;HTU21D;9913;51.168;4.124;2024-02-28T15:45:42;10.25;99.00
19536;HTU21D;9913;51.168;4.124;2024-02-28T15:48:12;10.39;99.03
19536;HTU21D;9913;51.168;4.124;2024-02-28T15:50:41;10.34;99.33
19536;HTU21D;9913;51.168;4.124;2024-02-28T15:53:09;10.29;99.10
19536;HTU21D;9913;51.168;4.124;2024-02-28T15:55:39;10.19;98.82